Time,TemperatureF,DewpointF,PressureIn,WindDirection,WindDirectionDegrees,WindSpeedMPH,WindSpeedGustMPH,Humidity,HourlyPrecipIn,Conditions,Clouds,dailyrainin,SoftwareType,DateUTC
2013-07-25 00:02:00,56.5,53.2,30.05,ENE,77,1.0,3.0,89,0.00,,,0.00,meteohub,2013-07-25 05:02:00,
2013-07-25 00:07:00,56.1,52.9,30.05,ENE,77,0.0,3.0,89,0.00,,,0.00,meteohub,2013-07-25 05:07:00,
2013-07-25 00:12:00,55.9,52.7,30.05,ENE,77,1.0,3.0,89,0.00,,,0.00,meteohub,2013-07-25 05:12:00,
2013-07-25 00:17:00,55.8,52.5,30.05,ENE,77,1.0,2.0,89,0.00,,,0.00,meteohub,2013-07-25 05:17:00,
2013-07-25 00:22:00,55.6,52.3,30.05,ENE,77,0.0,2.0,89,0.00,,,0.00,meteohub,2013-07-25 05:22:00,
2013-07-25 00:28:00,55.6,52.3,30.05,ENE,77,0.0,2.0,89,0.00,,,0.00,meteohub,2013-07-25 05:28:00,
2013-07-25 00:33:00,55.4,52.2,30.05,ENE,77,0.0,3.0,89,0.00,,,0.00,meteohub,2013-07-25 05:33:00,
2013-07-25 00:39:00,55.4,52.5,30.05,ENE,77,0.0,3.0,90,0.00,,,0.00,meteohub,2013-07-25 05:39:00,
2013-07-25 00:44:00,55.4,52.5,30.05,ENE,77,0.0,3.0,90,0.00,,,0.00,meteohub,2013-07-25 05:44:00,
2013-07-25 00:49:00,55.2,52.3,30.05,ENE,77,2.0,3.0,90,0.00,,,0.00,meteohub,2013-07-25 05:49:00,
2013-07-25 00:55:00,55.0,52.2,30.04,ENE,77,1.0,3.0,90,0.00,,,0.00,meteohub,2013-07-25 05:55:00,
2013-07-25 01:00:00,55.0,52.2,30.04,ENE,77,1.0,3.0,90,0.00,,,0.00,meteohub,2013-07-25 06:00:00,
2013-07-25 01:06:00,55.0,52.2,30.04,ENE,77,1.0,3.0,90,0.00,,,0.00,meteohub,2013-07-25 06:06:00,
2013-07-25 01:11:00,55.0,52.2,30.04,ENE,77,2.0,3.0,90,0.00,,,0.00,meteohub,2013-07-25 06:11:00,
2013-07-25 01:16:00,55.2,52.7,30.04,ENE,77,2.0,3.0,91,0.00,,,0.00,meteohub,2013-07-25 06:16:00,
2013-07-25 01:21:00,55.2,52.7,30.04,ENE,77,1.0,3.0,91,0.00,,,0.00,meteohub,2013-07-25 06:21:00,
2013-07-25 01:26:00,55.4,52.9,30.03,ENE,77,1.0,4.0,91,0.00,,,0.00,meteohub,2013-07-25 06:26:00,
2013-07-25 01:32:00,55.4,52.5,30.03,ENE,77,0.0,4.0,90,0.00,,,0.00,meteohub,2013-07-25 06:32:00,
2013-07-25 01:37:00,55.6,52.7,30.03,ENE,77,1.0,4.0,90,0.00,,,0.00,meteohub,2013-07-25 06:37:00,
2013-07-25 01:42:00,55.6,52.7,30.03,ENE,77,2.0,4.0,90,0.00,,,0.00,meteohub,2013-07-25 06:42:00,
2013-07-25 01:47:00,55.6,52.7,30.03,ENE,77,2.0,4.0,90,0.00,,,0.00,meteohub,2013-07-25 06:47:00,
2013-07-25 01:53:00,55.6,52.7,30.03,ENE,77,2.0,5.0,90,0.00,,,0.00,meteohub,2013-07-25 06:53:00,
2013-07-25 01:58:00,55.6,52.7,30.03,ENE,77,2.0,5.0,90,0.00,,,0.00,meteohub,2013-07-25 06:58:00,
2013-07-25 02:04:00,55.6,52.7,30.03,ENE,77,2.0,4.0,90,0.00,,,0.00,meteohub,2013-07-25 07:04:00,
2013-07-25 02:09:00,55.4,52.5,30.03,ENE,77,2.0,4.0,90,0.00,,,0.00,meteohub,2013-07-25 07:09:00,
2013-07-25 02:14:00,55.2,52.3,30.03,ENE,77,1.0,4.0,90,0.00,,,0.00,meteohub,2013-07-25 07:14:00,
2013-07-25 02:20:00,55.2,52.3,30.03,ENE,77,1.0,3.0,90,0.00,,,0.00,meteohub,2013-07-25 07:20:00,
2013-07-25 02:25:00,55.0,52.2,30.03,ENE,77,1.0,4.0,90,0.00,,,0.00,meteohub,2013-07-25 07:25:00,
2013-07-25 02:31:00,54.9,52.0,30.03,ENE,77,1.0,4.0,90,0.00,,,0.00,meteohub,2013-07-25 07:31:00,
2013-07-25 02:36:00,54.9,52.0,30.04,ENE,77,2.0,4.0,90,0.00,,,0.00,meteohub,2013-07-25 07:36:00,
2013-07-25 02:42:00,55.0,52.5,30.04,East,81,3.0,4.0,91,0.00,,,0.00,meteohub,2013-07-25 07:42:00,
2013-07-25 02:47:00,55.0,52.5,30.04,East,86,5.0,6.0,91,0.00,,,0.00,meteohub,2013-07-25 07:47:00,
2013-07-25 02:52:00,55.0,52.5,30.04,East,94,3.0,6.0,91,0.00,,,0.00,meteohub,2013-07-25 07:52:00,
2013-07-25 02:57:00,55.0,52.5,30.04,East,94,1.0,6.0,91,0.00,,,0.00,meteohub,2013-07-25 07:57:00,
2013-07-25 03:02:00,54.9,52.3,30.04,East,94,2.0,6.0,91,0.00,,,0.00,meteohub,2013-07-25 08:02:00,
2013-07-25 03:07:00,54.9,52.3,30.04,East,94,3.0,5.0,91,0.00,,,0.00,meteohub,2013-07-25 08:07:00,
2013-07-25 03:12:00,54.7,52.2,30.04,East,94,1.0,5.0,91,0.00,,,0.00,meteohub,2013-07-25 08:12:00,
2013-07-25 03:17:00,54.5,52.0,30.04,East,94,3.0,3.0,91,0.00,,,0.00,meteohub,2013-07-25 08:17:00,
2013-07-25 03:22:00,54.3,51.8,30.04,East,94,1.0,3.0,91,0.00,,,0.00,meteohub,2013-07-25 08:22:00,
2013-07-25 03:28:00,54.1,51.6,30.04,East,94,2.0,3.0,91,0.00,,,0.00,meteohub,2013-07-25 08:28:00,
2013-07-25 03:33:00,54.0,51.6,30.04,East,94,0.0,3.0,92,0.00,,,0.00,meteohub,2013-07-25 08:33:00,
2013-07-25 03:39:00,53.8,51.3,30.04,East,94,0.0,2.0,91,0.00,,,0.00,meteohub,2013-07-25 08:39:00,
2013-07-25 03:44:00,53.4,51.1,30.04,East,94,2.0,2.0,92,0.00,,,0.00,meteohub,2013-07-25 08:44:00,
2013-07-25 03:50:00,53.2,50.9,30.04,East,94,0.0,2.0,92,0.00,,,0.00,meteohub,2013-07-25 08:50:00,
2013-07-25 03:55:00,53.2,50.9,30.04,East,94,2.0,2.0,92,0.00,,,0.00,meteohub,2013-07-25 08:55:00,
2013-07-25 04:00:00,53.4,51.4,30.04,East,94,1.0,5.0,93,0.00,,,0.00,meteohub,2013-07-25 09:00:00,
2013-07-25 04:06:00,53.2,50.9,30.04,East,94,1.0,5.0,92,0.00,,,0.00,meteohub,2013-07-25 09:06:00,
2013-07-25 04:11:00,53.2,51.3,30.04,East,94,0.0,5.0,93,0.00,,,0.00,meteohub,2013-07-25 09:11:00,
2013-07-25 04:16:00,53.1,51.1,30.04,East,94,1.0,2.0,93,0.00,,,0.00,meteohub,2013-07-25 09:16:00,
2013-07-25 04:22:00,52.9,50.9,30.04,East,94,1.0,2.0,93,0.00,,,0.00,meteohub,2013-07-25 09:22:00,
2013-07-25 04:27:00,52.9,50.9,30.04,East,94,2.0,2.0,93,0.00,,,0.00,meteohub,2013-07-25 09:27:00,
2013-07-25 04:32:00,52.7,50.7,30.04,East,94,2.0,3.0,93,0.00,,,0.00,meteohub,2013-07-25 09:32:00,
2013-07-25 04:37:00,52.9,50.9,30.04,East,94,2.0,3.0,93,0.00,,,0.00,meteohub,2013-07-25 09:37:00,
2013-07-25 04:42:00,52.7,50.7,30.04,East,94,1.0,3.0,93,0.00,,,0.00,meteohub,2013-07-25 09:42:00,
2013-07-25 04:47:00,52.7,50.7,30.04,East,94,1.0,3.0,93,0.00,,,0.00,meteohub,2013-07-25 09:47:00,
2013-07-25 04:52:00,52.9,51.3,30.04,East,94,2.0,3.0,94,0.00,,,0.00,meteohub,2013-07-25 09:52:00,
2013-07-25 04:57:00,53.1,51.4,30.04,East,94,2.0,5.0,94,0.00,,,0.00,meteohub,2013-07-25 09:57:00,
2013-07-25 05:02:00,53.2,51.6,30.05,East,94,3.0,5.0,94,0.00,,,0.00,meteohub,2013-07-25 10:02:00,
2013-07-25 05:07:00,53.2,51.6,30.05,East,94,3.0,5.0,94,0.00,,,0.00,meteohub,2013-07-25 10:07:00,
2013-07-25 05:13:00,53.2,51.6,30.05,East,94,3.0,5.0,94,0.00,,,0.00,meteohub,2013-07-25 10:13:00,
2013-07-25 05:18:00,53.2,51.6,30.05,East,94,2.0,5.0,94,0.00,,,0.00,meteohub,2013-07-25 10:18:00,
2013-07-25 05:23:00,53.4,51.8,30.05,East,94,1.0,5.0,94,0.00,,,0.00,meteohub,2013-07-25 10:23:00,
2013-07-25 05:29:00,53.6,52.0,30.05,East,94,2.0,7.0,94,0.00,,,0.00,meteohub,2013-07-25 10:29:00,
2013-07-25 05:34:00,53.6,52.0,30.05,East,94,6.0,7.0,94,0.00,,,0.00,meteohub,2013-07-25 10:34:00,
2013-07-25 05:40:00,53.6,52.0,30.05,East,94,1.0,7.0,94,0.00,,,0.00,meteohub,2013-07-25 10:40:00,
2013-07-25 05:45:00,53.8,52.2,30.05,East,94,3.0,7.0,94,0.00,,,0.00,meteohub,2013-07-25 10:45:00,
2013-07-25 05:50:00,53.8,52.2,30.04,East,94,3.0,6.0,94,0.00,,,0.00,meteohub,2013-07-25 10:50:00,
2013-07-25 05:56:00,54.0,52.3,30.05,East,94,5.0,5.0,94,0.00,,,0.00,meteohub,2013-07-25 10:56:00,
2013-07-25 06:02:00,54.1,52.5,30.05,East,97,5.0,6.0,94,0.00,,,0.00,meteohub,2013-07-25 11:02:00,
2013-07-25 06:07:00,54.5,52.9,30.05,ESE,111,3.0,7.0,94,0.00,,,0.00,meteohub,2013-07-25 11:07:00,
2013-07-25 06:12:00,54.9,53.2,30.05,ESE,121,4.0,8.0,94,0.00,,,0.00,meteohub,2013-07-25 11:12:00,
2013-07-25 06:17:00,55.2,53.6,30.05,SE,135,3.0,8.0,94,0.00,,,0.00,meteohub,2013-07-25 11:17:00,
2013-07-25 06:22:00,55.6,53.6,30.05,SE,136,5.0,8.0,93,0.00,,,0.00,meteohub,2013-07-25 11:22:00,
2013-07-25 06:27:00,55.8,53.8,30.05,SE,136,4.0,8.0,93,0.00,,,0.00,meteohub,2013-07-25 11:27:00,
2013-07-25 06:32:00,55.9,54.0,30.05,SE,136,3.0,8.0,93,0.00,,,0.00,meteohub,2013-07-25 11:32:00,
2013-07-25 06:37:00,56.5,54.5,30.05,SE,136,3.0,7.0,93,0.00,,,0.00,meteohub,2013-07-25 11:37:00,
2013-07-25 06:42:00,56.8,54.5,30.05,SE,137,4.0,7.0,92,0.00,,,0.00,meteohub,2013-07-25 11:42:00,
2013-07-25 06:48:00,57.0,54.7,30.06,SE,146,3.0,7.0,92,0.00,,,0.00,meteohub,2013-07-25 11:48:00,
2013-07-25 06:53:00,57.6,55.2,30.06,SSE,147,5.0,8.0,92,0.00,,,0.00,meteohub,2013-07-25 11:53:00,
2013-07-25 06:59:00,57.7,55.2,30.06,SSE,157,3.0,8.0,91,0.00,,,0.00,meteohub,2013-07-25 11:59:00,
2013-07-25 07:04:00,58.3,55.6,30.06,SSE,157,3.0,9.0,91,0.00,,,0.00,meteohub,2013-07-25 12:04:00,
2013-07-25 07:09:00,58.6,55.9,30.06,SSE,159,5.0,9.0,91,0.00,,,0.00,meteohub,2013-07-25 12:09:00,
2013-07-25 07:15:00,58.8,56.1,30.06,SSE,159,4.0,9.0,91,0.00,,,0.00,meteohub,2013-07-25 12:15:00,
2013-07-25 07:20:00,59.2,56.3,30.06,SSE,167,6.0,8.0,90,0.00,,,0.00,meteohub,2013-07-25 12:20:00,
2013-07-25 07:25:00,59.5,56.7,30.06,South,169,5.0,9.0,90,0.00,,,0.00,meteohub,2013-07-25 12:25:00,
2013-07-25 07:30:00,59.9,57.0,30.06,South,169,7.0,9.0,90,0.00,,,0.00,meteohub,2013-07-25 12:30:00,
2013-07-25 07:35:00,60.3,57.0,30.06,South,169,6.0,8.0,89,0.00,,,0.00,meteohub,2013-07-25 12:35:00,
2013-07-25 07:41:00,60.6,57.4,30.06,South,170,2.0,8.0,89,0.00,,,0.00,meteohub,2013-07-25 12:41:00,
2013-07-25 07:46:00,61.0,57.7,30.06,South,170,1.0,9.0,89,0.00,,,0.00,meteohub,2013-07-25 12:46:00,
2013-07-25 07:51:00,61.3,57.7,30.06,South,170,6.0,9.0,88,0.00,,,0.00,meteohub,2013-07-25 12:51:00,
2013-07-25 07:57:00,61.9,57.9,30.06,South,176,5.0,8.0,87,0.00,,,0.00,meteohub,2013-07-25 12:57:00,
2013-07-25 08:02:00,62.1,57.7,30.06,South,184,3.0,8.0,86,0.00,,,0.00,meteohub,2013-07-25 13:02:00,
2013-07-25 08:07:00,62.8,59.5,30.06,South,184,5.0,11.0,89,0.00,,,0.00,meteohub,2013-07-25 13:07:00,
2013-07-25 08:12:00,63.1,58.6,30.06,South,185,5.0,11.0,85,0.00,,,0.00,meteohub,2013-07-25 13:12:00,
2013-07-25 08:17:00,63.7,58.8,30.06,South,185,3.0,11.0,84,0.00,,,0.00,meteohub,2013-07-25 13:17:00,
2013-07-25 08:22:00,63.9,58.3,30.06,South,183,4.0,9.0,82,0.00,,,0.00,meteohub,2013-07-25 13:22:00,
2013-07-25 08:27:00,63.9,58.3,30.06,South,184,3.0,10.0,82,0.00,,,0.00,meteohub,2013-07-25 13:27:00,
2013-07-25 08:32:00,64.0,58.5,30.05,South,186,4.0,10.0,82,0.00,,,0.00,meteohub,2013-07-25 13:32:00,
2013-07-25 08:37:00,64.6,59.4,30.05,South,187,5.0,9.0,83,0.00,,,0.00,meteohub,2013-07-25 13:37:00,
2013-07-25 08:42:00,64.9,59.0,30.05,South,190,8.0,9.0,81,0.00,,,0.00,meteohub,2013-07-25 13:42:00,
2013-07-25 08:47:00,65.1,59.2,30.06,South,190,5.0,11.0,81,0.00,,,0.00,meteohub,2013-07-25 13:47:00,
2013-07-25 08:52:00,65.5,59.2,30.06,South,187,6.0,11.0,80,0.00,,,0.00,meteohub,2013-07-25 13:52:00,
2013-07-25 08:57:00,65.8,59.2,30.06,South,187,3.0,11.0,79,0.00,,,0.00,meteohub,2013-07-25 13:57:00,
2013-07-25 09:03:00,66.4,60.1,30.06,SSW,197,6.0,11.0,80,0.00,,,0.00,meteohub,2013-07-25 14:03:00,
2013-07-25 09:08:00,66.7,60.1,30.06,SSW,196,5.0,11.0,79,0.00,,,0.00,meteohub,2013-07-25 14:08:00,
2013-07-25 09:13:00,66.9,59.5,30.06,SSW,196,7.0,10.0,77,0.00,,,0.00,meteohub,2013-07-25 14:13:00,
2013-07-25 09:18:00,67.3,60.3,30.05,SSW,194,6.0,9.0,78,0.00,,,0.00,meteohub,2013-07-25 14:18:00,
2013-07-25 09:23:00,67.5,60.4,30.05,SSW,196,1.0,9.0,78,0.00,,,0.00,meteohub,2013-07-25 14:23:00,
2013-07-25 09:29:00,67.8,59.9,30.06,South,187,4.0,8.0,76,0.00,,,0.00,meteohub,2013-07-25 14:29:00,
2013-07-25 09:34:00,68.4,60.4,30.06,South,188,7.0,8.0,76,0.00,,,0.00,meteohub,2013-07-25 14:34:00,
2013-07-25 09:39:00,68.4,60.4,30.06,South,188,2.0,9.0,76,0.00,,,0.00,meteohub,2013-07-25 14:39:00,
2013-07-25 09:44:00,68.5,60.6,30.06,South,188,4.0,9.0,76,0.00,,,0.00,meteohub,2013-07-25 14:44:00,
2013-07-25 09:50:00,68.5,60.6,30.06,SW,216,0.0,9.0,76,0.00,,,0.00,meteohub,2013-07-25 14:50:00,
2013-07-25 09:55:00,69.1,60.8,30.06,SSW,202,4.0,7.0,75,0.00,,,0.00,meteohub,2013-07-25 14:55:00,
2013-07-25 10:00:00,69.3,61.3,30.06,SSW,202,6.0,8.0,76,0.00,,,0.00,meteohub,2013-07-25 15:00:00,
2013-07-25 10:05:00,70.0,62.1,30.06,SSW,202,4.0,8.0,76,0.00,,,0.00,meteohub,2013-07-25 15:05:00,
2013-07-25 10:10:00,70.2,61.5,30.06,SSW,196,7.0,8.0,74,0.00,,,0.00,meteohub,2013-07-25 15:10:00,
2013-07-25 10:16:00,70.7,62.1,30.06,South,191,9.0,9.0,74,0.00,,,0.00,meteohub,2013-07-25 15:16:00,
2013-07-25 10:21:00,70.9,61.9,30.06,SSW,194,7.0,9.0,73,0.00,,,0.00,meteohub,2013-07-25 15:21:00,
2013-07-25 10:26:00,71.1,61.5,30.06,South,190,4.0,10.0,72,0.00,,,0.00,meteohub,2013-07-25 15:26:00,
2013-07-25 10:31:00,71.2,61.7,30.06,SSW,197,5.0,11.0,72,0.00,,,0.00,meteohub,2013-07-25 15:31:00,
2013-07-25 10:36:00,71.6,62.1,30.05,South,190,6.0,13.0,72,0.00,,,0.00,meteohub,2013-07-25 15:36:00,
2013-07-25 10:42:00,71.8,62.2,30.05,South,190,6.0,13.0,72,0.00,,,0.00,meteohub,2013-07-25 15:42:00,
2013-07-25 10:47:00,72.1,63.0,30.05,South,188,3.0,13.0,73,0.00,,,0.00,meteohub,2013-07-25 15:47:00,
2013-07-25 10:52:00,72.7,62.8,30.05,South,190,5.0,10.0,71,0.00,,,0.00,meteohub,2013-07-25 15:52:00,
2013-07-25 10:57:00,72.9,63.3,30.06,SSW,196,4.0,12.0,72,0.00,,,0.00,meteohub,2013-07-25 15:57:00,
2013-07-25 11:02:00,73.0,62.2,30.06,SSW,199,7.0,12.0,69,0.00,,,0.00,meteohub,2013-07-25 16:02:00,
2013-07-25 11:07:00,73.0,62.2,30.06,South,188,5.0,12.0,69,0.00,,,0.00,meteohub,2013-07-25 16:07:00,
2013-07-25 11:12:00,73.0,61.5,30.06,South,184,7.0,11.0,67,0.00,,,0.00,meteohub,2013-07-25 16:12:00,
2013-07-25 11:17:00,72.9,62.1,30.05,SSW,198,2.0,11.0,69,0.00,,,0.00,meteohub,2013-07-25 16:17:00,
2013-07-25 11:22:00,72.7,62.2,30.05,South,186,2.0,11.0,70,0.00,,,0.00,meteohub,2013-07-25 16:22:00,
2013-07-25 11:27:00,73.2,62.8,30.05,South,178,10.0,11.0,70,0.00,,,0.00,meteohub,2013-07-25 16:27:00,
2013-07-25 11:32:00,73.6,62.4,30.05,South,191,6.0,12.0,68,0.00,,,0.00,meteohub,2013-07-25 16:32:00,
2013-07-25 11:38:00,73.6,61.9,30.04,South,186,4.0,12.0,67,0.00,,,0.00,meteohub,2013-07-25 16:38:00,
2013-07-25 11:43:00,73.8,62.6,30.04,SSE,162,4.0,12.0,68,0.00,,,0.00,meteohub,2013-07-25 16:43:00,
2013-07-25 11:48:00,73.8,62.1,30.04,SSW,192,7.0,11.0,67,0.00,,,0.00,meteohub,2013-07-25 16:48:00,
2013-07-25 11:53:00,73.4,61.3,30.04,South,189,9.0,12.0,66,0.00,,,0.00,meteohub,2013-07-25 16:53:00,
2013-07-25 11:58:00,73.2,61.5,30.04,South,185,5.0,12.0,67,0.00,,,0.00,meteohub,2013-07-25 16:58:00,
2013-07-25 12:03:00,73.2,61.5,30.04,South,184,5.0,12.0,67,0.00,,,0.00,meteohub,2013-07-25 17:03:00,
2013-07-25 12:08:00,73.6,62.4,30.04,SSW,192,4.0,12.0,68,0.00,,,0.00,meteohub,2013-07-25 17:08:00,
2013-07-25 12:14:00,73.6,61.9,30.04,South,184,4.0,12.0,67,0.00,,,0.00,meteohub,2013-07-25 17:14:00,
2013-07-25 12:19:00,73.6,62.8,30.04,SSW,195,6.0,12.0,69,0.00,,,0.00,meteohub,2013-07-25 17:19:00,
2013-07-25 12:24:00,73.6,62.8,30.04,SSW,194,4.0,12.0,69,0.00,,,0.00,meteohub,2013-07-25 17:24:00,
2013-07-25 12:29:00,73.8,63.0,30.04,South,189,3.0,11.0,69,0.00,,,0.00,meteohub,2013-07-25 17:29:00,
2013-07-25 12:35:00,73.9,63.1,30.03,South,183,7.0,11.0,69,0.00,,,0.00,meteohub,2013-07-25 17:35:00,
2013-07-25 12:40:00,74.8,63.5,30.03,SSW,198,7.0,11.0,68,0.00,,,0.00,meteohub,2013-07-25 17:40:00,
2013-07-25 12:45:00,75.4,63.7,30.03,SSW,194,10.0,12.0,67,0.00,,,0.00,meteohub,2013-07-25 17:45:00,
2013-07-25 12:50:00,75.7,63.5,30.03,SSW,198,7.0,12.0,66,0.00,,,0.00,meteohub,2013-07-25 17:50:00,
2013-07-25 12:56:00,76.1,64.4,30.03,SSW,204,12.0,13.0,67,0.00,,,0.00,meteohub,2013-07-25 17:56:00,
2013-07-25 13:01:00,76.3,63.1,30.03,SSW,202,8.0,13.0,64,0.00,,,0.00,meteohub,2013-07-25 18:01:00,
2013-07-25 13:06:00,76.5,63.9,30.02,SSW,203,5.0,13.0,65,0.00,,,0.00,meteohub,2013-07-25 18:06:00,
2013-07-25 13:12:00,76.1,63.0,30.02,SSW,194,8.0,13.0,64,0.00,,,0.00,meteohub,2013-07-25 18:12:00,
2013-07-25 13:17:00,75.7,63.5,30.02,SSW,200,7.0,17.0,66,0.00,,,0.00,meteohub,2013-07-25 18:17:00,
2013-07-25 13:22:00,75.9,63.3,30.02,South,183,6.0,17.0,65,0.00,,,0.00,meteohub,2013-07-25 18:22:00,
2013-07-25 13:27:00,76.5,64.2,30.02,South,180,6.0,17.0,66,0.00,,,0.00,meteohub,2013-07-25 18:27:00,
2013-07-25 13:32:00,76.6,64.4,30.02,SSW,199,7.0,13.0,66,0.00,,,0.00,meteohub,2013-07-25 18:32:00,
2013-07-25 13:37:00,77.2,65.3,30.02,SSW,203,8.0,14.0,67,0.00,,,0.00,meteohub,2013-07-25 18:37:00,
2013-07-25 13:42:00,76.8,63.3,30.02,South,173,10.0,16.0,63,0.00,,,0.00,meteohub,2013-07-25 18:42:00,
2013-07-25 13:47:00,76.5,63.3,30.02,SSW,195,6.0,16.0,64,0.00,,,0.00,meteohub,2013-07-25 18:47:00,
2013-07-25 13:52:00,76.6,64.0,30.02,South,180,5.0,16.0,65,0.00,,,0.00,meteohub,2013-07-25 18:52:00,
2013-07-25 13:57:00,76.6,64.0,30.02,South,175,6.0,14.0,65,0.00,,,0.00,meteohub,2013-07-25 18:57:00,
2013-07-25 14:02:00,77.2,64.0,30.01,SSW,197,12.0,14.0,64,0.00,,,0.00,meteohub,2013-07-25 19:02:00,
2013-07-25 14:07:00,77.7,64.9,30.01,SSW,198,8.0,15.0,65,0.00,,,0.00,meteohub,2013-07-25 19:07:00,
2013-07-25 14:13:00,77.5,64.4,30.01,SSW,203,4.0,15.0,64,0.00,,,0.00,meteohub,2013-07-25 19:13:00,
2013-07-25 14:18:00,77.9,64.2,30.01,SW,217,8.0,15.0,63,0.00,,,0.00,meteohub,2013-07-25 19:18:00,
2013-07-25 14:23:00,78.3,65.1,30.01,SSW,207,9.0,13.0,64,0.00,,,0.00,meteohub,2013-07-25 19:23:00,
2013-07-25 14:28:00,78.3,63.7,30.01,SSW,200,9.0,13.0,61,0.00,,,0.00,meteohub,2013-07-25 19:28:00,
2013-07-25 14:33:00,78.4,63.9,30.00,SSW,204,7.0,13.0,61,0.00,,,0.00,meteohub,2013-07-25 19:33:00,
2013-07-25 14:36:00,78.6,64.6,30.00,SSW,209,7.0,14.0,62,0.00,,,0.00,meteohub,2013-07-25 19:36:00,
2013-07-25 14:42:00,77.9,63.3,30.00,SW,215,4.0,14.0,61,0.00,,,0.00,meteohub,2013-07-25 19:42:00,
2013-07-25 14:47:00,77.4,63.9,29.99,SSW,195,4.0,11.0,63,0.00,,,0.00,meteohub,2013-07-25 19:47:00,
2013-07-25 14:52:00,77.4,63.9,29.99,SSW,198,6.0,11.0,63,0.00,,,0.00,meteohub,2013-07-25 19:52:00,
2013-07-25 14:58:00,77.4,63.3,29.99,South,185,12.0,13.0,62,0.00,,,0.00,meteohub,2013-07-25 19:58:00,
2013-07-25 15:03:00,77.4,63.9,29.99,SSW,209,6.0,14.0,63,0.00,,,0.00,meteohub,2013-07-25 20:03:00,
2013-07-25 15:08:00,77.7,64.6,29.99,SW,214,6.0,14.0,64,0.00,,,0.00,meteohub,2013-07-25 20:08:00,
2013-07-25 15:13:00,77.7,64.0,29.98,SSW,206,7.0,14.0,63,0.00,,,0.00,meteohub,2013-07-25 20:13:00,
2013-07-25 15:19:00,77.4,65.1,29.98,SSW,207,6.0,13.0,66,0.00,,,0.00,meteohub,2013-07-25 20:19:00,
2013-07-25 15:24:00,76.8,64.2,29.98,SSW,203,4.0,13.0,65,0.00,,,0.00,meteohub,2013-07-25 20:24:00,
2013-07-25 15:29:00,77.5,65.3,29.98,South,190,6.0,13.0,66,0.00,,,0.00,meteohub,2013-07-25 20:29:00,
2013-07-25 15:34:00,78.1,64.9,29.98,South,187,5.0,11.0,64,0.00,,,0.00,meteohub,2013-07-25 20:34:00,
2013-07-25 15:39:00,78.3,65.1,29.98,South,174,7.0,12.0,64,0.00,,,0.00,meteohub,2013-07-25 20:39:00,
2013-07-25 15:44:00,77.5,63.5,29.98,South,189,5.0,12.0,62,0.00,,,0.00,meteohub,2013-07-25 20:44:00,
2013-07-25 15:49:00,77.0,63.9,29.98,SSW,204,9.0,13.0,64,0.00,,,0.00,meteohub,2013-07-25 20:49:00,
2013-07-25 15:54:00,76.6,63.5,29.98,SSW,196,7.0,13.0,64,0.00,,,0.00,meteohub,2013-07-25 20:54:00,
2013-07-25 15:59:00,76.5,63.9,29.98,South,186,7.0,13.0,65,0.00,,,0.00,meteohub,2013-07-25 20:59:00,
2013-07-25 16:05:00,76.5,64.2,29.98,SSW,200,4.0,13.0,66,0.00,,,0.00,meteohub,2013-07-25 21:05:00,
2013-07-25 16:10:00,76.6,63.5,29.98,SSE,153,8.0,13.0,64,0.00,,,0.00,meteohub,2013-07-25 21:10:00,
2013-07-25 16:15:00,76.8,64.2,29.98,South,180,5.0,13.0,65,0.00,,,0.00,meteohub,2013-07-25 21:15:00,
2013-07-25 16:20:00,76.5,64.2,29.98,South,182,6.0,14.0,66,0.00,,,0.00,meteohub,2013-07-25 21:20:00,
2013-07-25 16:25:00,76.6,64.9,29.97,South,176,9.0,14.0,67,0.00,,,0.00,meteohub,2013-07-25 21:25:00,
2013-07-25 16:30:00,76.6,64.9,29.97,SSW,201,7.0,13.0,67,0.00,,,0.00,meteohub,2013-07-25 21:30:00,
2013-07-25 16:36:00,76.6,64.9,29.97,South,190,7.0,11.0,67,0.00,,,0.00,meteohub,2013-07-25 21:36:00,
2013-07-25 16:41:00,76.5,64.8,29.97,South,176,4.0,11.0,67,0.00,,,0.00,meteohub,2013-07-25 21:41:00,
2013-07-25 16:46:00,76.5,65.5,29.97,South,174,8.0,12.0,69,0.00,,,0.00,meteohub,2013-07-25 21:46:00,
2013-07-25 16:51:00,76.1,65.1,29.97,South,175,2.0,13.0,69,0.00,,,0.00,meteohub,2013-07-25 21:51:00,
2013-07-25 16:57:00,76.1,64.8,29.97,South,179,12.0,13.0,68,0.00,,,0.00,meteohub,2013-07-25 21:57:00,
2013-07-25 17:02:00,75.9,64.6,29.97,South,178,10.0,13.0,68,0.00,,,0.00,meteohub,2013-07-25 22:02:00,
2013-07-25 17:07:00,75.6,65.1,29.97,South,190,8.0,14.0,70,0.00,,,0.00,meteohub,2013-07-25 22:07:00,
2013-07-25 17:12:00,75.6,64.8,29.98,South,184,9.0,14.0,69,0.00,,,0.00,meteohub,2013-07-25 22:12:00,
2013-07-25 17:17:00,75.4,64.6,29.97,SSW,199,7.0,14.0,69,0.00,,,0.00,meteohub,2013-07-25 22:17:00,
2013-07-25 17:22:00,75.4,64.6,29.97,South,173,8.0,13.0,69,0.00,,,0.00,meteohub,2013-07-25 22:22:00,
2013-07-25 17:27:00,75.2,64.8,29.97,SSW,192,7.0,13.0,70,0.00,,,0.00,meteohub,2013-07-25 22:27:00,
2013-07-25 17:32:00,75.0,64.9,29.97,South,188,4.0,13.0,71,0.00,,,0.00,meteohub,2013-07-25 22:32:00,
2013-07-25 17:37:00,74.8,64.8,29.97,SSW,194,5.0,11.0,71,0.00,,,0.00,meteohub,2013-07-25 22:37:00,
2013-07-25 17:42:00,74.8,64.8,29.97,SSW,201,7.0,12.0,71,0.00,,,0.00,meteohub,2013-07-25 22:42:00,
2013-07-25 17:47:00,74.7,64.2,29.97,South,173,9.0,12.0,70,0.00,,,0.00,meteohub,2013-07-25 22:47:00,
2013-07-25 17:53:00,74.7,64.2,29.97,South,184,7.0,12.0,70,0.00,,,0.00,meteohub,2013-07-25 22:53:00,
2013-07-25 17:58:00,74.5,64.4,29.97,SSW,192,6.0,11.0,71,0.00,,,0.00,meteohub,2013-07-25 22:58:00,
2013-07-25 18:03:00,74.5,64.9,29.97,South,184,4.0,11.0,72,0.00,,,0.00,meteohub,2013-07-25 23:03:00,
2013-07-25 18:08:00,74.3,65.1,29.97,SSE,155,3.0,11.0,73,0.00,,,0.00,meteohub,2013-07-25 23:08:00,
2013-07-25 18:13:00,74.1,64.6,29.97,South,175,6.0,11.0,72,0.00,,,0.00,meteohub,2013-07-25 23:13:00,
2013-07-25 18:19:00,74.1,64.6,29.97,SSW,192,5.0,12.0,72,0.00,,,0.00,meteohub,2013-07-25 23:19:00,
2013-07-25 18:24:00,73.9,64.4,29.97,South,175,5.0,14.0,72,0.00,,,0.00,meteohub,2013-07-25 23:24:00,
2013-07-25 18:29:00,73.9,64.4,29.97,SSW,193,7.0,14.0,72,0.00,,,0.00,meteohub,2013-07-25 23:29:00,
2013-07-25 18:34:00,73.8,64.2,29.97,South,186,9.0,14.0,72,0.00,,,0.00,meteohub,2013-07-25 23:34:00,
2013-07-25 18:40:00,73.8,64.2,29.97,South,180,6.0,13.0,72,0.00,,,0.00,meteohub,2013-07-25 23:40:00,
2013-07-25 18:45:00,73.8,64.2,29.96,South,186,5.0,13.0,72,0.00,,,0.00,meteohub,2013-07-25 23:45:00,
2013-07-25 18:50:00,73.6,64.4,29.96,South,189,4.0,11.0,73,0.00,,,0.00,meteohub,2013-07-25 23:50:00,
2013-07-25 18:55:00,73.2,64.4,29.96,South,186,5.0,12.0,74,0.00,,,0.00,meteohub,2013-07-25 23:55:00,
2013-07-25 19:01:00,72.7,65.1,29.96,South,186,6.0,12.0,77,0.00,,,0.00,meteohub,2013-07-26 00:01:00,
2013-07-25 19:06:00,72.0,64.8,29.96,South,176,2.0,12.0,78,0.00,,,0.00,meteohub,2013-07-26 00:06:00,
2013-07-25 19:11:00,71.8,64.9,29.96,South,184,4.0,10.0,79,0.00,,,0.00,meteohub,2013-07-26 00:11:00,
2013-07-25 19:16:00,71.4,64.6,29.96,South,188,5.0,8.0,79,0.00,,,0.00,meteohub,2013-07-26 00:16:00,
2013-07-25 19:21:00,71.6,64.8,29.96,South,184,2.0,8.0,79,0.00,,,0.00,meteohub,2013-07-26 00:21:00,
2013-07-25 19:27:00,71.6,64.4,29.96,SSW,196,4.0,8.0,78,0.00,,,0.00,meteohub,2013-07-26 00:27:00,
2013-07-25 19:32:00,71.8,64.6,29.96,South,183,4.0,9.0,78,0.00,,,0.00,meteohub,2013-07-26 00:32:00,
2013-07-25 19:37:00,72.0,64.4,29.96,South,180,5.0,9.0,77,0.00,,,0.00,meteohub,2013-07-26 00:37:00,
2013-07-25 19:42:00,72.1,64.6,29.96,SSW,194,2.0,10.0,77,0.00,,,0.00,meteohub,2013-07-26 00:42:00,
2013-07-25 19:47:00,72.1,64.2,29.96,South,180,5.0,11.0,76,0.00,,,0.00,meteohub,2013-07-26 00:47:00,
2013-07-25 19:52:00,72.1,64.6,29.97,SW,236,4.0,12.0,77,0.00,,,0.00,meteohub,2013-07-26 00:52:00,
2013-07-25 19:57:00,71.1,64.9,29.97,WSW,252,4.0,12.0,81,0.00,,,0.00,meteohub,2013-07-26 00:57:00,
2013-07-25 20:02:00,70.0,64.9,29.97,WSW,257,0.0,12.0,84,0.03,,,0.03,meteohub,2013-07-26 01:02:00,
2013-07-25 20:07:00,69.1,64.8,29.96,SSW,210,1.0,9.0,86,0.05,,,0.05,meteohub,2013-07-26 01:07:00,
2013-07-25 20:12:00,68.7,64.8,29.97,SSW,210,0.0,6.0,87,0.05,,,0.05,meteohub,2013-07-26 01:12:00,
2013-07-25 20:18:00,68.4,64.6,29.97,SSW,210,2.0,6.0,88,0.05,,,0.05,meteohub,2013-07-26 01:18:00,
2013-07-25 20:23:00,68.2,64.8,29.97,SSW,210,0.0,5.0,89,0.05,,,0.05,meteohub,2013-07-26 01:23:00,
2013-07-25 20:28:00,68.0,64.6,29.97,SSW,210,0.0,3.0,89,0.05,,,0.05,meteohub,2013-07-26 01:28:00,
2013-07-25 20:33:00,67.8,64.8,29.97,SSW,210,0.0,3.0,90,0.05,,,0.05,meteohub,2013-07-26 01:33:00,
2013-07-25 20:38:00,67.6,64.6,29.97,SSW,210,0.0,2.0,90,0.05,,,0.05,meteohub,2013-07-26 01:38:00,
2013-07-25 20:43:00,67.5,64.4,29.97,SSW,210,1.0,2.0,90,0.05,,,0.05,meteohub,2013-07-26 01:43:00,
2013-07-25 20:48:00,67.3,64.6,29.97,SSW,210,0.0,2.0,91,0.05,,,0.05,meteohub,2013-07-26 01:48:00,
2013-07-25 20:53:00,67.1,64.4,29.97,SSW,210,1.0,1.0,91,0.05,,,0.05,meteohub,2013-07-26 01:53:00,
2013-07-25 20:59:00,67.1,64.8,29.97,SSW,210,0.0,2.0,92,0.04,,,0.05,meteohub,2013-07-26 01:59:00,
2013-07-25 21:04:00,67.1,64.8,29.97,SSW,210,1.0,2.0,92,0.01,,,0.05,meteohub,2013-07-26 02:04:00,
2013-07-25 21:09:00,67.3,64.9,29.97,SSW,210,1.0,3.0,92,0.00,,,0.05,meteohub,2013-07-26 02:09:00,
2013-07-25 21:14:00,67.3,64.9,29.97,SSW,210,0.0,3.0,92,0.00,,,0.05,meteohub,2013-07-26 02:14:00,
2013-07-25 21:19:00,67.1,64.8,29.97,SSW,210,1.0,3.0,92,0.00,,,0.05,meteohub,2013-07-26 02:19:00,
2013-07-25 21:25:00,67.3,64.9,29.96,SSW,210,3.0,4.0,92,0.00,,,0.05,meteohub,2013-07-26 02:25:00,
2013-07-25 21:30:00,67.5,64.8,29.96,SSW,210,0.0,6.0,91,0.00,,,0.05,meteohub,2013-07-26 02:30:00,
2013-07-25 21:36:00,67.5,64.8,29.96,SSW,210,2.0,6.0,91,0.00,,,0.05,meteohub,2013-07-26 02:36:00,
2013-07-25 21:41:00,67.6,64.9,29.96,South,184,2.0,7.0,91,0.00,,,0.05,meteohub,2013-07-26 02:41:00,
2013-07-25 21:46:00,68.0,65.3,29.96,South,183,2.0,8.0,91,0.00,,,0.05,meteohub,2013-07-26 02:46:00,
2013-07-25 21:52:00,68.2,65.1,29.96,South,191,0.0,8.0,90,0.00,,,0.05,meteohub,2013-07-26 02:52:00,
2013-07-25 21:57:00,68.2,65.1,29.96,South,191,0.0,8.0,90,0.00,,,0.05,meteohub,2013-07-26 02:57:00,
2013-07-25 22:02:00,68.2,65.1,29.96,SSW,193,5.0,8.0,90,0.00,,,0.05,meteohub,2013-07-26 03:02:00,
2013-07-25 22:08:00,68.2,65.1,29.96,South,191,4.0,10.0,90,0.00,,,0.05,meteohub,2013-07-26 03:08:00,
2013-07-25 22:13:00,68.0,64.9,29.96,South,191,1.0,10.0,90,0.00,,,0.05,meteohub,2013-07-26 03:13:00,
2013-07-25 22:18:00,67.8,64.8,29.96,SSW,192,2.0,10.0,90,0.00,,,0.05,meteohub,2013-07-26 03:18:00,
2013-07-25 22:23:00,67.8,64.8,29.96,SSW,201,4.0,8.0,90,0.00,,,0.05,meteohub,2013-07-26 03:23:00,
2013-07-25 22:28:00,67.8,64.8,29.96,SSW,194,3.0,8.0,90,0.00,,,0.05,meteohub,2013-07-26 03:28:00,
2013-07-25 22:34:00,67.8,64.8,29.96,SSW,194,0.0,8.0,90,0.00,,,0.05,meteohub,2013-07-26 03:34:00,
2013-07-25 22:39:00,67.6,64.6,29.96,SSW,194,2.0,7.0,90,0.00,,,0.05,meteohub,2013-07-26 03:39:00,
2013-07-25 22:44:00,67.6,64.6,29.96,SSW,194,1.0,7.0,90,0.00,,,0.05,meteohub,2013-07-26 03:44:00,
2013-07-25 22:49:00,67.5,64.4,29.95,SSW,194,1.0,6.0,90,0.00,,,0.05,meteohub,2013-07-26 03:49:00,
2013-07-25 22:55:00,67.5,64.4,29.95,SSW,194,0.0,6.0,90,0.00,,,0.05,meteohub,2013-07-26 03:55:00,
2013-07-25 23:00:00,67.3,64.2,29.94,SSW,194,1.0,6.0,90,0.00,,,0.05,meteohub,2013-07-26 04:00:00,
2013-07-25 23:01:00,67.3,64.6,29.95,SSW,194,3.0,6.0,91,0.00,,,0.05,meteohub,2013-07-26 04:01:00,
2013-07-25 23:02:00,67.1,64.4,29.95,SSW,194,1.0,6.0,91,0.00,,,0.05,meteohub,2013-07-26 04:02:00,
2013-07-25 23:03:00,67.1,64.4,29.95,SSW,194,0.0,6.0,91,0.00,,,0.05,meteohub,2013-07-26 04:03:00,
2013-07-25 23:06:00,66.9,64.2,29.95,SSW,194,0.0,6.0,91,0.00,,,0.05,meteohub,2013-07-26 04:06:00,
2013-07-25 23:12:00,66.9,64.2,29.95,SSW,194,0.0,4.0,91,0.00,,,0.05,meteohub,2013-07-26 04:12:00,
2013-07-25 23:17:00,66.9,64.2,29.95,SSW,194,2.0,6.0,91,0.00,,,0.05,meteohub,2013-07-26 04:17:00,
2013-07-25 23:22:00,66.9,64.2,29.95,SSW,194,2.0,6.0,91,0.00,,,0.05,meteohub,2013-07-26 04:22:00,
2013-07-25 23:27:00,66.7,64.0,29.95,SSW,194,0.0,6.0,91,0.00,,,0.05,meteohub,2013-07-26 04:27:00,
2013-07-25 23:32:00,66.4,63.7,29.95,SSW,194,0.0,6.0,91,0.00,,,0.05,meteohub,2013-07-26 04:32:00,
2013-07-25 23:38:00,65.8,63.1,29.95,SSW,194,0.0,5.0,91,0.00,,,0.05,meteohub,2013-07-26 04:38:00,
2013-07-25 23:43:00,65.7,63.3,29.94,SSW,194,0.0,4.0,92,0.00,,,0.05,meteohub,2013-07-26 04:43:00,
2013-07-25 23:48:00,65.3,63.0,29.94,SSW,194,0.0,4.0,92,0.00,,,0.05,meteohub,2013-07-26 04:48:00,
2013-07-25 23:53:00,65.1,62.8,29.94,SSW,194,1.0,3.0,92,0.00,,,0.05,meteohub,2013-07-26 04:53:00,
2013-07-25 23:59:00,64.9,62.6,29.94,SSW,194,0.0,3.0,92,0.00,,,0.05,meteohub,2013-07-26 04:59:00,